Time;durP1;ratioP1;P1;durP2;ratioP2;P2;SDS_P1;SDS_P2;PMS_P1;PMS_P2;Temp;Humidity;BMP_temperature;BMP_pressure;BME280_temperature;BME280_humidity;BME280_pressure;Samples;Min_cycle;Max_cycle;Signal;HPM_P1;HPM_P2
2024/01/23 00:00:25;;;;;;;4.38;2.63;;;;;;;3.93;43.68;100141.19;5068277;28;20032;-82
2024/01/23 00:02:51;;;;;;;3.95;2.38;;;;;;;3.93;44.06;100143.78;5067593;28;20468;-81
2024/01/23 00:05:16;;;;;;;3.30;1.90;;;;;;;3.85;43.94;100132.81;5069955;28;20551;-81
2024/01/23 00:07:42;;;;;;;4.15;2.40;;;;;;;3.85;43.55;100140.56;5086878;28;20399;-82
2024/01/23 00:10:08;;;;;;;5.40;2.70;;;;;;;3.86;43.76;100148.25;5069956;28;20031;-80
2024/01/23 00:12:33;;;;;;;3.47;2.20;;;;;;;3.85;44.00;100137.97;5069674;28;20030;-81
2024/01/23 00:14:58;;;;;;;3.55;2.22;;;;;;;3.82;43.97;100130.31;5067600;28;20035;-82
2024/01/23 00:17:24;;;;;;;4.45;2.50;;;;;;;3.76;43.80;100120.97;5085939;28;20425;-82
2024/01/23 00:19:50;;;;;;;3.92;2.40;;;;;;;3.79;44.01;100134.63;5068895;28;20076;-81
2024/01/23 00:22:16;;;;;;;5.57;2.38;;;;;;;3.80;43.91;100130.34;5084706;28;20063;-82
2024/01/23 00:24:41;;;;;;;3.67;2.30;;;;;;;3.71;44.11;100117.66;5086682;28;20023;-81
2024/01/23 00:27:08;;;;;;;5.60;2.80;;;;;;;3.77;43.95;100128.69;5067937;28;20532;-81
2024/01/23 00:29:34;;;;;;;4.75;2.30;;;;;;;3.75;44.20;100127.03;5051483;28;20118;-80
2024/01/23 00:32:01;;;;;;;4.38;2.53;;;;;;;3.75;43.74;100137.38;5052723;28;20034;-82
2024/01/23 00:34:26;;;;;;;5.95;2.15;;;;;;;3.73;43.75;100124.50;5061622;28;20028;-81
2024/01/23 00:36:52;;;;;;;4.35;2.00;;;;;;;3.70;44.08;100127.16;5042553;28;20024;-82
2024/01/23 00:39:17;;;;;;;4.40;2.28;;;;;;;3.66;44.12;100115.19;5076074;28;20025;-82
2024/01/23 00:41:43;;;;;;;3.85;2.00;;;;;;;3.68;43.75;100110.81;5059434;28;20032;-82
2024/01/23 00:44:08;;;;;;;3.72;2.33;;;;;;;3.65;43.97;100100.56;5042792;28;20028;-81
2024/01/23 00:46:34;;;;;;;3.83;2.13;;;;;;;3.62;43.90;100095.50;5059499;28;20471;-81
2024/01/23 00:49:00;;;;;;;4.55;2.33;;;;;;;3.65;44.11;100103.16;5042140;28;20060;-82
2024/01/23 00:51:26;;;;;;;4.18;2.20;;;;;;;3.62;44.16;100090.31;5042340;28;20034;-81
2024/01/23 00:53:51;;;;;;;3.72;2.17;;;;;;;3.55;43.92;100081.06;5075648;28;20028;-82
2024/01/23 00:56:17;;;;;;;4.20;1.70;;;;;;;3.64;43.96;100093.75;5042228;28;20028;-82
2024/01/23 00:58:42;;;;;;;2.80;1.92;;;;;;;3.62;44.02;100088.63;5042062;28;20536;-82
2024/01/23 01:01:08;;;;;;;3.70;2.03;;;;;;;3.56;44.10;100077.59;5093670;28;20028;-82
2024/01/23 01:03:33;;;;;;;3.40;2.28;;;;;;;3.56;44.12;100077.59;5041904;28;20062;-80
2024/01/23 01:05:59;;;;;;;3.95;2.15;;;;;;;3.55;44.11;100068.16;5042086;28;20039;-81
2024/01/23 01:08:24;;;;;;;5.53;2.30;;;;;;;3.58;44.10;100073.25;5042201;28;20031;-82
2024/01/23 01:10:50;;;;;;;3.60;2.20;;;;;;;3.54;44.35;100074.19;5059169;28;20075;-81
2024/01/23 01:13:16;;;;;;;4.07;2.13;;;;;;;3.49;43.89;100061.41;5041999;28;20479;-81
2024/01/23 01:15:41;;;;;;;4.10;1.90;;;;;;;3.54;44.13;100069.03;5074810;28;20063;-82
2024/01/23 01:18:07;;;;;;;4.75;2.08;;;;;;;3.51;43.96;100066.53;5074172;28;20046;-81
2024/01/23 01:20:33;;;;;;;2.88;1.80;;;;;;;3.50;44.22;100070.84;5058962;28;20028;-80
2024/01/23 01:22:59;;;;;;;2.97;1.90;;;;;;;3.51;43.84;100066.53;5041963;28;20514;-81
2024/01/23 01:25:25;;;;;;;4.88;1.90;;;;;;;3.44;44.37;100055.50;5041408;28;20040;-80
2024/01/23 01:27:51;;;;;;;2.67;1.73;;;;;;;3.49;43.90;100063.13;5058515;28;20028;-81
2024/01/23 01:30:16;;;;;;;4.20;1.83;;;;;;;3.44;44.04;100058.94;5075099;28;20027;-81
2024/01/23 01:32:42;;;;;;;3.50;1.73;;;;;;;3.44;43.79;100055.50;5041482;28;20027;-80
2024/01/23 01:35:08;;;;;;;4.32;1.80;;;;;;;3.46;43.80;100055.47;5041619;28;20032;-81
2024/01/23 01:37:33;;;;;;;3.08;1.80;;;;;;;3.38;43.75;100051.34;5057664;28;20364;-81
2024/01/23 01:39:59;;;;;;;5.97;1.70;;;;;;;3.41;43.95;100050.44;5057737;28;20047;-81
2024/01/23 01:42:25;;;;;;;3.42;1.67;;;;;;;3.36;43.74;100044.53;5074890;28;20032;-82
2024/01/23 01:44:50;;;;;;;3.50;1.90;;;;;;;3.35;44.07;100048.88;5057992;28;20051;-80
2024/01/23 01:47:17;;;;;;;2.55;1.60;;;;;;;3.36;43.63;100044.53;5057897;28;20067;-81
2024/01/23 01:49:42;;;;;;;2.63;1.58;;;;;;;3.37;43.97;100044.50;5041068;28;20052;-80
2024/01/23 01:52:08;;;;;;;4.22;1.95;;;;;;;3.33;44.35;100029.97;5057980;28;20039;-80
2024/01/23 01:54:33;;;;;;;3.50;1.85;;;;;;;3.35;43.67;100028.22;5074682;28;20499;-79
2024/01/23 01:57:00;;;;;;;2.92;1.60;;;;;;;3.34;43.74;100036.00;5058056;28;20028;-81
2024/01/23 01:59:26;;;;;;;5.60;1.77;;;;;;;3.31;43.61;100021.44;5074586;28;20031;-79
2024/01/23 02:01:51;;;;;;;3.15;1.60;;;;;;;3.31;43.98;100029.19;5074539;28;20028;-81
2024/01/23 02:04:17;;;;;;;2.75;1.70;;;;;;;3.23;43.81;100011.31;5058318;28;20036;-81
2024/01/23 02:06:43;;;;;;;3.50;1.88;;;;;;;3.30;43.70;100016.31;5057808;28;20024;-80
2024/01/23 02:09:09;;;;;;;3.33;1.75;;;;;;;3.23;43.80;100013.03;5074971;28;20036;-81
2024/01/23 02:11:34;;;;;;;4.53;1.63;;;;;;;3.26;44.01;100018.97;5057770;28;20035;-81
2024/01/23 02:14:00;;;;;;;4.40;1.60;;;;;;;3.21;43.89;100002.75;5074645;28;20040;-81
2024/01/23 02:16:25;;;;;;;3.10;1.63;;;;;;;3.21;44.03;100007.06;5040927;28;20060;-81
2024/01/23 02:18:50;;;;;;;2.85;1.60;;;;;;;3.23;44.16;100015.63;5041159;28;20039;-81
2024/01/23 02:21:16;;;;;;;2.60;1.70;;;;;;;3.21;43.83;100013.09;5040628;28;20467;-82
2024/01/23 02:23:42;;;;;;;3.17;1.73;;;;;;;3.22;43.99;100009.59;5057548;28;20032;-80
2024/01/23 02:26:07;;;;;;;3.13;1.85;;;;;;;3.20;43.70;100005.38;5074888;28;20368;-82
2024/01/23 02:28:33;;;;;;;2.65;1.50;;;;;;;3.19;43.83;99991.59;5045162;28;20410;-81
2024/01/23 02:30:58;;;;;;;3.67;1.90;;;;;;;3.18;43.58;99992.50;5044772;28;20024;-82
2024/01/23 02:33:24;;;;;;;3.95;1.85;;;;;;;3.19;44.06;99995.94;5061825;28;20114;-79
2024/01/23 02:35:49;;;;;;;3.03;1.65;;;;;;;3.15;44.16;99984.03;5061630;28;20109;-82
2024/01/23 02:38:15;;;;;;;3.65;1.88;;;;;;;3.18;43.84;99996.81;5061452;28;20108;-81
2024/01/23 02:40:40;;;;;;;3.20;1.50;;;;;;;3.14;43.72;99988.31;5061547;28;20032;-81
2024/01/23 02:43:06;;;;;;;3.60;1.80;;;;;;;3.17;44.19;99992.56;5061330;28;20032;-80
2024/01/23 02:45:31;;;;;;;3.30;1.75;;;;;;;3.18;44.06;99994.22;5061518;28;20028;-81
2024/01/23 02:47:57;;;;;;;2.60;1.50;;;;;;;3.08;43.77;99972.97;5061590;28;20028;-80
2024/01/23 02:50:22;;;;;;;2.70;1.58;;;;;;;3.14;44.24;99993.47;5077993;28;20059;-82
2024/01/23 02:52:49;;;;;;;3.47;2.05;;;;;;;3.13;44.25;99981.47;5077863;28;20028;-81
2024/01/23 02:55:15;;;;;;;2.33;1.55;;;;;;;3.12;43.76;99987.50;5061646;28;20076;-82
2024/01/23 02:57:41;;;;;;;3.25;1.95;;;;;;;3.13;43.99;99980.59;5061179;28;20028;-82
2024/01/23 03:00:08;;;;;;;3.60;1.90;;;;;;;3.04;44.05;99967.06;5061195;28;20468;-82
2024/01/23 03:02:33;;;;;;;3.70;1.83;;;;;;;3.06;43.72;99991.09;5044664;28;20395;-81
2024/01/23 03:04:59;;;;;;;3.13;1.70;;;;;;;3.06;43.78;99974.75;5044293;28;20044;-81
2024/01/23 03:07:24;;;;;;;2.35;1.58;;;;;;;3.05;43.60;99986.81;5061197;28;20449;-81
2024/01/23 03:09:50;;;;;;;3.55;1.90;;;;;;;3.05;43.92;99981.66;5044261;28;20067;-80
2024/01/23 03:12:16;;;;;;;3.25;1.80;;;;;;;3.03;44.08;99975.69;5044139;28;20063;-82
2024/01/23 03:14:45;;;;;;;3.15;1.77;;;;;;;3.03;43.99;99980.84;5077140;28;20081;-82
2024/01/23 03:17:11;;;;;;;2.70;1.77;;;;;;;2.98;43.78;99971.53;5060725;28;20035;-81
2024/01/23 03:19:36;;;;;;;2.42;1.67;;;;;;;2.99;44.02;99978.38;5060708;28;20020;-80
2024/01/23 03:22:03;;;;;;;3.22;1.60;;;;;;;3.02;43.88;99986.03;5060649;28;20056;-82
2024/01/23 03:24:29;;;;;;;4.03;1.80;;;;;;;2.96;43.74;99970.72;5044210;28;20024;-82
2024/01/23 03:26:54;;;;;;;3.40;1.88;;;;;;;3.00;43.70;99983.50;5060631;28;20479;-82
2024/01/23 03:29:20;;;;;;;3.00;1.73;;;;;;;3.00;43.67;99980.06;5043876;28;20089;-82
2024/01/23 03:31:45;;;;;;;4.05;1.90;;;;;;;2.95;43.85;99971.63;5060347;28;20078;-80
2024/01/23 03:34:11;;;;;;;4.78;1.83;;;;;;;2.98;43.61;99974.97;5043771;28;20024;-80
2024/01/23 03:36:36;;;;;;;3.30;1.90;;;;;;;2.97;43.99;99973.25;5060110;28;20067;-80
2024/01/23 03:39:02;;;;;;;3.22;2.00;;;;;;;2.93;43.89;99957.91;5043708;28;20108;-81
2024/01/23 03:41:29;;;;;;;5.57;2.05;;;;;;;2.88;44.07;99943.41;5043655;28;20526;-81
2024/01/23 03:43:55;;;;;;;3.40;2.20;;;;;;;2.87;43.98;99943.44;5077084;28;20032;-82
2024/01/23 03:46:21;;;;;;;2.80;2.08;;;;;;;2.87;44.05;99944.28;5043657;28;20055;-83
2024/01/23 03:48:46;;;;;;;3.67;2.00;;;;;;;2.85;44.00;99945.22;5043336;28;20104;-80
2024/01/23 03:51:11;;;;;;;3.97;2.25;;;;;;;2.85;44.10;99945.22;5076961;28;20039;-82
2024/01/23 03:53:37;;;;;;;4.32;2.50;;;;;;;2.85;43.87;99946.06;5060370;28;20028;-81
2024/01/23 03:56:04;;;;;;;5.20;2.30;;;;;;;2.82;43.52;99940.13;5043475;28;20031;-81
2024/01/23 03:58:29;;;;;;;5.32;2.50;;;;;;;2.79;43.72;99933.31;5060632;28;20020;-81
2024/01/23 04:00:57;;;;;;;4.78;2.40;;;;;;;2.79;43.89;99930.72;5076950;28;20039;-80
2024/01/23 04:03:23;;;;;;;4.93;2.93;;;;;;;2.77;43.97;99929.94;5044047;28;20554;-81
2024/01/23 04:05:48;;;;;;;6.88;2.85;;;;;;;2.79;43.63;99930.72;5076957;28;20158;-79
2024/01/23 04:08:14;;;;;;;5.38;2.60;;;;;;;2.75;43.74;99926.53;5059924;28;20036;-81
2024/01/23 04:10:39;;;;;;;4.32;2.42;;;;;;;2.74;43.56;99934.31;5059670;28;20090;-81
2024/01/23 04:13:05;;;;;;;5.18;2.45;;;;;;;2.76;43.62;99938.53;5042993;28;20035;-81
2024/01/23 04:15:30;;;;;;;4.40;2.47;;;;;;;2.75;43.65;99925.69;5076640;28;20039;-81
2024/01/23 04:17:56;;;;;;;5.85;2.78;;;;;;;2.70;43.99;99924.09;5076367;28;20032;-81
2024/01/23 04:20:21;;;;;;;4.93;2.47;;;;;;;2.69;44.20;99930.13;5043321;28;20490;-81
2024/01/23 04:22:47;;;;;;;4.20;2.10;;;;;;;2.69;43.86;99926.69;5059759;28;20109;-80
2024/01/23 04:25:12;;;;;;;5.78;2.65;;;;;;;2.68;43.93;99925.84;5059560;28;20028;-82
2024/01/23 04:27:38;;;;;;;3.38;2.30;;;;;;;2.69;44.11;99918.97;5059562;28;20536;-80
2024/01/23 04:30:04;;;;;;;3.55;2.03;;;;;;;2.65;44.06;99913.03;5076254;28;20096;-80
2024/01/23 04:32:29;;;;;;;3.45;2.22;;;;;;;2.58;43.73;99911.50;5057821;28;20089;-81
2024/01/23 04:34:55;;;;;;;5.13;2.53;;;;;;;2.65;43.92;99910.44;5034986;28;20024;-81
2024/01/23 04:37:22;;;;;;;3.47;2.00;;;;;;;2.61;44.23;99914.00;5059085;28;20078;-81
2024/01/23 04:39:47;;;;;;;2.95;1.90;;;;;;;2.62;43.87;99920.00;5059662;28;20028;-80
2024/01/23 04:42:13;;;;;;;3.15;2.08;;;;;;;2.62;44.31;99923.41;5042525;28;20035;-78
2024/01/23 04:44:38;;;;;;;3.88;2.28;;;;;;;2.57;44.30;99916.69;5058935;28;20036;-78
2024/01/23 04:47:04;;;;;;;4.05;2.45;;;;;;;2.54;44.41;99917.59;5058970;28;20032;-81
2024/01/23 04:49:30;;;;;;;4.05;2.67;;;;;;;2.59;44.25;99923.47;5047556;28;20140;-85
2024/01/23 04:51:56;;;;;;;15.75;2.90;;;;;;;2.66;50.81;99907.00;5043650;28;20028;-80
2024/01/23 04:54:21;;;;;;;6.07;2.20;;;;;;;3.62;73.40;99918.19;5058979;28;20039;-84
2024/01/23 04:56:47;;;;;;;4.13;2.22;;;;;;;3.71;68.30;99916.22;5075515;28;20544;-79
2024/01/23 04:59:12;;;;;;;8.20;2.47;;;;;;;3.59;62.93;99918.28;5059297;28;20035;-78
2024/01/23 05:01:38;;;;;;;10.95;2.85;;;;;;;3.57;63.53;99914.03;5075672;28;20025;-82
2024/01/23 05:04:05;;;;;;;6.18;2.80;;;;;;;3.55;60.92;99913.22;5059349;28;20049;-80
2024/01/23 05:06:30;;;;;;;6.85;3.00;;;;;;;3.47;59.15;99908.28;5042066;28;20380;-80
2024/01/23 05:08:56;;;;;;;5.38;2.65;;;;;;;3.45;64.06;99902.31;5059297;28;20035;-80
2024/01/23 05:11:23;;;;;;;8.20;3.42;;;;;;;3.45;61.49;99904.91;5058958;28;20457;-81
2024/01/23 05:13:49;;;;;;;7.78;3.10;;;;;;;3.42;59.42;99905.84;5059819;28;20111;-79
2024/01/23 05:16:15;;;;;;;7.80;3.08;;;;;;;3.36;58.40;99910.31;5075422;28;20043;-79
2024/01/23 05:18:40;;;;;;;4.85;3.08;;;;;;;3.21;57.91;99902.13;5075452;28;20111;-79
2024/01/23 05:21:06;;;;;;;5.30;3.50;;;;;;;3.14;56.93;99890.25;5041686;28;20506;-78
2024/01/23 05:23:31;;;;;;;6.30;3.60;;;;;;;3.13;56.45;99898.03;5056868;28;20036;-80
2024/01/23 05:25:58;;;;;;;5.88;3.92;;;;;;;3.07;56.56;99899.91;5057161;28;20487;-79
2024/01/23 05:28:24;;;;;;;6.35;3.35;;;;;;;3.00;55.93;99895.78;5041225;28;20043;-79
2024/01/23 05:30:49;;;;;;;5.50;3.55;;;;;;;2.99;55.39;99899.28;5058141;28;20069;-78
2024/01/23 05:33:15;;;;;;;8.63;3.95;;;;;;;2.96;55.33;99895.91;5041141;28;20530;-78
2024/01/23 05:35:41;;;;;;;6.60;3.70;;;;;;;2.91;55.24;99893.47;5040667;28;20032;-79
2024/01/23 05:38:06;;;;;;;6.68;3.63;;;;;;;2.89;54.64;99887.50;5040885;28;20032;-77
2024/01/23 05:40:32;;;;;;;6.30;4.00;;;;;;;2.84;53.81;99890.19;5075017;28;20433;-82
2024/01/23 05:42:58;;;;;;;5.63;3.67;;;;;;;2.85;53.41;99886.72;5058404;28;20410;-79
2024/01/23 05:45:24;;;;;;;6.32;3.95;;;;;;;2.85;53.27;99899.63;5057296;28;20040;-78
2024/01/23 05:47:49;;;;;;;8.02;3.58;;;;;;;2.84;53.47;99885.03;5041663;28;20036;-81
2024/01/23 05:50:16;;;;;;;6.00;3.80;;;;;;;2.86;52.90;99877.25;5057617;28;20052;-81
2024/01/23 05:52:41;;;;;;;5.80;3.58;;;;;;;2.97;52.52;99880.38;5041732;28;20028;-79
2024/01/23 05:55:07;;;;;;;9.20;3.75;;;;;;;3.05;52.28;99880.19;5072923;28;20509;-80
2024/01/23 05:57:32;;;;;;;6.18;3.53;;;;;;;3.15;51.41;99862.75;5042000;28;20475;-81
2024/01/23 05:59:59;;;;;;;5.72;3.60;;;;;;;3.35;51.41;99865.63;5059648;28;20045;-83
2024/01/23 06:02:25;;;;;;;6.10;3.65;;;;;;;3.56;50.57;99860.72;5074595;28;20392;-82
2024/01/23 06:04:50;;;;;;;6.50;3.67;;;;;;;3.89;50.04;99865.72;5076558;28;20057;-85
2024/01/23 06:07:16;;;;;;;4.68;3.00;;;;;;;4.26;56.85;99847.34;5063351;28;20016;-87
2024/01/23 06:09:42;;;;;;;5.25;2.85;;;;;;;4.87;56.43;99872.88;5046835;28;20090;-85
2024/01/23 06:12:08;;;;;;;5.18;2.92;;;;;;;5.41;52.58;99859.78;5059591;28;20039;-85
2024/01/23 06:14:33;;;;;;;6.07;3.28;;;;;;;6.05;48.99;99847.84;5041961;28;20032;-86
2024/01/23 06:16:59;;;;;;;7.43;3.30;;;;;;;6.80;46.52;99865.53;5074806;28;20020;-84
2024/01/23 06:19:24;;;;;;;5.65;3.53;;;;;;;7.48;44.55;99865.16;5058233;28;20471;-84
2024/01/23 06:21:51;;;;;;;5.72;3.53;;;;;;;8.21;43.30;99856.56;5043104;28;20485;-85
2024/01/23 06:24:17;;;;;;;8.52;3.15;;;;;;;8.95;41.50;99856.34;5046429;28;20028;-85
2024/01/23 06:26:42;;;;;;;6.57;3.25;;;;;;;9.73;40.18;99855.72;5041452;28;20023;-85
2024/01/23 06:29:08;;;;;;;10.80;4.05;;;;;;;10.67;38.76;99859.09;5042115;28;20039;-84
2024/01/23 06:31:34;;;;;;;6.20;3.38;;;;;;;11.66;36.52;99855.72;5064842;28;20109;-86
2024/01/23 06:34:00;;;;;;;5.18;3.42;;;;;;;12.71;34.65;99851.56;5067734;28;20071;-84
2024/01/23 06:36:26;;;;;;;6.53;3.25;;;;;;;13.81;33.25;99857.16;5087328;28;20020;-90
2024/01/23 06:38:52;;;;;;;5.97;2.30;;;;;;;14.86;44.60;99850.28;5049548;28;20049;-88
2024/01/23 06:41:18;;;;;;;5.90;2.85;;;;;;;15.88;38.30;99851.09;5049599;28;20040;-82
2024/01/23 06:43:43;;;;;;;6.57;2.85;;;;;;;17.10;35.06;99841.03;5070505;28;20058;-81
2024/01/23 06:46:09;;;;;;;4.93;2.90;;;;;;;18.15;32.98;99845.03;5043895;28;20020;-87
2024/01/23 06:48:34;;;;;;;6.40;3.13;;;;;;;19.07;29.56;99840.19;5092560;28;20581;-84
2024/01/23 06:51:01;;;;;;;5.45;2.80;;;;;;;19.98;27.30;99837.63;5093463;28;20047;-84
2024/01/23 06:53:28;;;;;;;7.47;4.03;;;;;;;20.68;25.20;99820.97;5091832;28;20040;-82
2024/01/23 06:55:55;;;;;;;7.03;3.22;;;;;;;21.58;23.89;99830.41;5106738;28;20036;-85
2024/01/23 06:58:20;;;;;;;7.28;3.65;;;;;;;22.27;22.19;99827.53;5077406;28;20148;-84
2024/01/23 07:00:47;;;;;;;7.85;4.88;;;;;;;22.89;20.67;99822.47;5041737;28;20040;-83
2024/01/23 07:03:18;;;;;;;9.50;5.03;;;;;;;23.51;19.04;99817.44;5074576;28;20036;-83
2024/01/23 07:05:44;;;;;;;5.90;4.55;;;;;;;24.16;18.62;99822.38;5109774;28;20047;-86
2024/01/23 07:08:09;;;;;;;7.60;5.20;;;;;;;24.62;17.52;99810.84;5078887;28;20046;-85
2024/01/23 07:10:35;;;;;;;13.18;4.82;;;;;;;25.06;17.22;99822.53;5079193;28;20027;-84
2024/01/23 07:13:06;;;;;;;7.40;5.47;;;;;;;25.40;17.03;99813.97;5085641;28;20032;-90
2024/01/23 07:15:34;;;;;;;11.40;5.90;;;;;;;25.44;16.53;99814.41;5106130;28;20028;-88
2024/01/23 07:18:03;;;;;;;9.70;5.97;;;;;;;25.42;16.63;99814.59;5089933;28;20059;-86
2024/01/23 07:20:29;;;;;;;13.45;6.18;;;;;;;25.30;16.71;99816.09;5081171;28;20112;-90
2024/01/23 07:22:55;;;;;;;12.18;6.55;;;;;;;24.99;16.78;99816.28;5082862;28;20027;-87
2024/01/23 07:25:24;;;;;;;10.73;6.93;;;;;;;24.65;16.62;99797.09;5066012;28;20523;-86
2024/01/23 07:27:50;;;;;;;12.32;7.35;;;;;;;24.36;17.00;99808.53;5081252;28;20028;-85
2024/01/23 07:30:20;;;;;;;17.02;7.63;;;;;;;23.94;17.24;99810.72;5065155;28;20035;-88
2024/01/23 07:32:46;;;;;;;12.88;7.80;;;;;;;23.52;17.62;99816.44;5071700;28;20053;-85
2024/01/23 07:35:11;;;;;;;14.98;8.55;;;;;;;23.16;17.63;99809.78;5080885;28;20048;-87
2024/01/23 07:37:37;;;;;;;14.20;8.25;;;;;;;22.77;18.16;99805.19;5082032;28;20024;-84
2024/01/23 07:40:05;;;;;;;15.45;8.25;;;;;;;22.61;18.24;99810.56;5070682;28;20510;-87
2024/01/23 07:42:30;;;;;;;12.43;8.20;;;;;;;22.35;18.72;99807.09;5083310;28;20118;-84
2024/01/23 07:44:57;;;;;;;10.43;6.45;;;;;;;22.15;18.66;99797.75;5082977;28;20039;-87
2024/01/23 07:47:26;;;;;;;7.60;6.10;;;;;;;21.94;18.86;99804.41;5082514;28;20043;-85
2024/01/23 07:49:52;;;;;;;11.65;6.25;;;;;;;21.78;19.16;99805.22;5099211;28;20067;-85
2024/01/23 07:52:19;;;;;;;10.52;6.10;;;;;;;21.72;19.08;99805.84;5082029;28;20028;-86
2024/01/23 07:54:50;;;;;;;10.77;6.10;;;;;;;21.66;19.06;99806.50;5097968;28;20055;-86
2024/01/23 07:57:15;;;;;;;10.02;5.55;;;;;;;21.70;18.71;99807.84;5080387;28;20020;-87
2024/01/23 07:59:41;;;;;;;9.23;5.80;;;;;;;21.63;18.95;99797.06;5063944;28;20406;-85
2024/01/23 08:02:06;;;;;;;9.82;5.28;;;;;;;21.75;18.89;99808.19;5063508;28;20402;-85
2024/01/23 08:04:32;;;;;;;8.63;6.07;;;;;;;21.85;18.93;99806.22;5096720;28;20479;-83
2024/01/23 08:06:58;;;;;;;9.52;5.80;;;;;;;21.89;18.83;99796.09;5080318;28;20383;-84
2024/01/23 08:09:24;;;;;;;12.00;5.57;;;;;;;22.02;18.92;99795.59;5063110;28;20055;-86
2024/01/23 08:11:52;;;;;;;9.85;6.05;;;;;;;22.14;18.34;99793.44;5074515;28;20039;-85
2024/01/23 08:14:18;;;;;;;9.23;5.47;;;;;;;22.18;18.50;99800.91;5048255;28;20486;-86
2024/01/23 08:16:47;;;;;;;10.40;5.70;;;;;;;22.41;18.26;99794.97;5114432;28;20019;-86
2024/01/23 08:19:13;;;;;;;11.15;5.60;;;;;;;22.50;17.86;99793.97;5100694;28;20043;-87
2024/01/23 08:21:41;;;;;;;11.60;5.60;;;;;;;22.64;17.79;99802.25;5063769;28;20032;-86
2024/01/23 08:24:07;;;;;;;8.75;5.22;;;;;;;22.65;17.84;99780.78;5076147;28;20032;-89
2024/01/23 08:26:33;;;;;;;6.97;4.05;;;;;;;22.68;26.96;99785.78;5049911;28;20085;-83
2024/01/23 08:28:59;;;;;;;10.57;4.97;;;;;;;22.77;27.77;99799.88;5065105;28;20020;-85
2024/01/23 08:31:25;;;;;;;11.55;5.88;;;;;;;22.39;25.26;99787.16;5044892;28;20123;-83
2024/01/23 08:33:52;;;;;;;14.80;5.90;;;;;;;22.33;25.78;99793.16;5061010;28;20552;-85
2024/01/23 08:36:18;;;;;;;17.35;5.03;;;;;;;22.50;26.58;99788.63;5061664;28;20107;-82
2024/01/23 08:38:53;;;;;;;7.35;4.70;;;;;;;22.63;26.63;99788.13;5081479;28;20044;-89
2024/01/23 08:41:22;;;;;;;9.90;4.47;;;;;;;22.69;27.38;99783.94;5101975;28;20032;-89
2024/01/23 08:43:51;;;;;;;17.13;5.95;;;;;;;22.67;27.09;99775.28;5082588;28;20088;-91
2024/01/23 08:46:23;;;;;;;14.75;5.80;;;;;;;22.76;26.93;99772.44;5083485;28;20106;-90
2024/01/23 08:48:52;;;;;;;23.48;6.20;;;;;;;22.77;26.95;99771.44;5085826;28;20056;-88
2024/01/23 08:51:24;;;;;;;19.75;6.68;;;;;;;22.78;27.52;99774.94;5096600;28;20506;-84
2024/01/23 08:53:52;;;;;;;28.42;7.75;;;;;;;22.76;27.15;99774.28;5077753;28;20039;-86
2024/01/23 08:56:23;;;;;;;12.80;7.28;;;;;;;22.75;27.64;99772.59;5058894;28;20479;-87
2024/01/23 08:58:49;;;;;;;19.33;8.25;;;;;;;22.71;27.48;99769.47;5061393;28;20043;-88
2024/01/23 09:01:16;;;;;;;23.42;8.50;;;;;;;22.79;27.36;99765.09;5098745;28;20020;-79
2024/01/23 09:03:41;;;;;;;20.70;8.95;;;;;;;22.76;27.38;99759.13;5058466;28;20489;-68
2024/01/23 09:06:09;;;;;;;17.10;9.38;;;;;;;22.87;27.46;99759.78;5093201;28;20214;-69
2024/01/23 09:08:35;;;;;;;22.27;9.33;;;;;;;22.98;28.09;99755.88;5092194;28;20088;-68
2024/01/23 09:11:00;;;;;;;31.52;10.13;;;;;;;23.23;27.13;99744.16;5075530;28;20051;-69
2024/01/23 09:13:29;;;;;;;20.70;10.65;;;;;;;23.34;27.16;99744.75;5075601;28;20396;-70
2024/01/23 09:15:55;;;;;;;19.25;10.82;;;;;;;23.41;27.09;99737.75;5092156;28;20024;-70
2024/01/23 09:18:20;;;;;;;28.13;12.80;;;;;;;23.64;25.34;99741.25;5075232;28;20104;-82
2024/01/23 09:20:46;;;;;;;30.00;13.82;;;;;;;23.86;24.33;99728.09;5058832;28;20031;-81
2024/01/23 09:23:11;;;;;;;30.23;14.48;;;;;;;24.09;23.16;99725.41;5094481;28;20020;-85
2024/01/23 09:25:37;;;;;;;24.77;11.55;;;;;;;24.28;25.53;99724.06;5077006;28;20484;-79
2024/01/23 09:28:02;;;;;;;25.48;11.93;;;;;;;24.85;23.79;99725.28;5095738;28;20032;-80
2024/01/23 09:30:29;;;;;;;22.92;11.98;;;;;;;25.40;23.58;99724.94;5093464;28;20399;-81
2024/01/23 09:32:54;;;;;;;22.55;13.00;;;;;;;26.15;20.63;99725.44;5058669;28;20031;-77
2024/01/23 09:35:20;;;;;;;21.05;11.98;;;;;;;26.22;19.66;99720.13;5092337;28;20097;-78
2024/01/23 09:37:45;;;;;;;18.65;11.32;;;;;;;26.13;18.60;99708.75;5058162;28;20036;-81
2024/01/23 09:40:12;;;;;;;23.42;11.23;;;;;;;25.66;18.14;99704.84;5057733;28;20096;-78
2024/01/23 09:42:39;;;;;;;19.83;11.07;;;;;;;25.06;17.86;99703.19;5056699;28;20036;-80
2024/01/23 09:45:09;;;;;;;18.48;10.00;;;;;;;24.60;17.74;99692.72;5093901;28;20031;-83
2024/01/23 09:47:35;;;;;;;21.27;9.48;;;;;;;24.36;17.38;99693.81;5060486;28;20407;-79
2024/01/23 09:50:02;;;;;;;21.00;8.40;;;;;;;24.38;17.17;99694.44;5058473;28;20055;-79
2024/01/23 09:52:28;;;;;;;16.45;8.43;;;;;;;25.06;16.44;99689.81;5042081;28;20028;-81
2024/01/23 09:54:53;;;;;;;14.15;8.45;;;;;;;25.90;15.65;99680.38;5058102;28;20024;-78
2024/01/23 09:57:18;;;;;;;14.73;8.77;;;;;;;27.08;14.81;99672.38;5075020;28;20517;-78
2024/01/23 09:59:44;;;;;;;15.07;7.95;;;;;;;27.98;13.67;99679.34;5074864;28;20036;-79
2024/01/23 10:02:10;;;;;;;15.38;7.47;;;;;;;28.48;12.87;99674.28;5075385;28;20034;-77
2024/01/23 10:04:35;;;;;;;10.73;7.50;;;;;;;28.99;12.68;99669.97;5074960;28;20468;-77
2024/01/23 10:07:06;;;;;;;13.50;7.20;;;;;;;29.25;12.40;99665.50;5092846;28;20028;-81
2024/01/23 10:09:31;;;;;;;8.35;6.63;;;;;;;29.02;12.53;99658.78;5074927;28;20092;-80
2024/01/23 10:11:57;;;;;;;10.18;5.93;;;;;;;28.38;12.94;99665.00;5057513;28;20036;-79
2024/01/23 10:14:22;;;;;;;9.10;5.95;;;;;;;27.61;13.66;99657.41;5058077;28;20035;-78
2024/01/23 10:16:48;;;;;;;8.00;5.72;;;;;;;27.40;13.66;99655.78;5057843;28;20027;-78
2024/01/23 10:19:14;;;;;;;8.63;5.75;;;;;;;27.01;14.01;99663.50;5058091;28;20032;-77
2024/01/23 10:21:40;;;;;;;8.90;5.05;;;;;;;26.28;14.57;99674.69;5058240;28;20028;-77
2024/01/23 10:24:06;;;;;;;8.60;4.75;;;;;;;26.23;14.64;99657.56;5058469;28;20036;-77
2024/01/23 10:26:32;;;;;;;9.48;5.03;;;;;;;25.76;14.56;99659.84;5057919;28;20036;-83
2024/01/23 10:28:57;;;;;;;7.20;4.20;;;;;;;25.41;15.30;99657.94;5058474;28;20039;-80
2024/01/23 10:31:23;;;;;;;10.07;4.50;;;;;;;25.12;15.64;99652.69;5057429;28;20037;-77
2024/01/23 10:33:49;;;;;;;9.88;4.15;;;;;;;24.96;15.83;99662.56;5041147;28;20070;-80
2024/01/23 10:36:14;;;;;;;6.88;4.20;;;;;;;24.63;15.83;99638.97;5057899;28;20024;-77
2024/01/23 10:38:39;;;;;;;10.40;4.50;;;;;;;23.87;16.49;99639.13;5057370;28;20483;-76
2024/01/23 10:41:05;;;;;;;8.15;3.83;;;;;;;23.28;17.04;99640.56;5057296;28;20028;-78
2024/01/23 10:43:31;;;;;;;7.95;3.60;;;;;;;23.03;17.49;99636.41;5073892;28;20035;-78
2024/01/23 10:46:03;;;;;;;5.00;3.85;;;;;;;22.93;17.46;99634.78;5073910;28;20471;-81
2024/01/23 10:48:30;;;;;;;6.43;3.60;;;;;;;22.64;18.14;99630.09;5077648;28;20048;-79
2024/01/23 10:51:17;;;;;;;5.88;3.90;;;;;;;22.17;17.88;99641.53;5096184;28;20082;-78
2024/01/23 10:53:57;;;;;;;5.93;3.40;;;;;;;21.53;18.77;99625.53;5081155;28;20477;-78
2024/01/23 10:56:23;;;;;;;6.30;3.58;;;;;;;21.30;18.69;99631.44;5079043;28;20020;-76
2024/01/23 10:58:55;;;;;;;9.57;3.78;;;;;;;20.87;19.24;99620.09;5061521;28;20035;-78
2024/01/23 11:01:21;;;;;;;6.45;3.47;;;;;;;19.86;19.89;99622.44;5062098;28;20044;-77
2024/01/23 11:03:46;;;;;;;5.93;3.60;;;;;;;19.36;20.63;99612.41;5061746;28;20040;-76
2024/01/23 11:06:21;;;;;;;5.03;3.50;;;;;;;18.75;21.22;99613.91;5061080;28;20032;-78
2024/01/23 11:08:56;;;;;;;5.55;3.63;;;;;;;18.62;21.46;99595.75;5045373;28;20122;-81
2024/01/23 11:11:43;;;;;;;5.88;3.13;;;;;;;18.69;21.96;99602.13;5045925;28;20055;-80
2024/01/23 11:14:28;;;;;;;8.10;3.70;;;;;;;18.55;21.88;99598.16;5096217;28;20035;-81
2024/01/23 11:17:02;;;;;;;5.43;3.40;;;;;;;18.52;22.16;99593.19;5043698;28;20036;-80
2024/01/23 11:19:27;;;;;;;7.25;3.58;;;;;;;18.48;22.41;99594.44;5061476;28;20469;-81
2024/01/23 11:22:02;;;;;;;5.47;3.42;;;;;;;18.40;22.57;99592.53;5077120;28;20032;-79
2024/01/23 11:24:41;;;;;;;5.75;3.03;;;;;;;18.14;22.70;99587.09;5058921;28;20205;-79
2024/01/23 11:27:07;;;;;;;10.75;3.45;;;;;;;17.93;23.08;99579.34;5059638;28;20040;-80
2024/01/23 11:29:35;;;;;;;8.57;3.50;;;;;;;17.78;23.15;99576.31;5060165;28;20517;-80